createdAt,value
2023-02-23T00:01:02.168Z,9.48
2023-02-23T00:04:06.962Z,9.46
2023-02-23T00:07:10.304Z,9.51
2023-02-23T00:10:18.287Z,9.61
2023-02-23T00:13:20.935Z,9.67
2023-02-23T00:16:26.063Z,9.71
2023-02-23T00:19:33.163Z,9.73
2023-02-23T00:22:35.951Z,9.77
2023-02-23T00:25:39.839Z,9.75
2023-02-23T00:28:44.415Z,9.73
2023-02-23T00:31:47.736Z,9.66
2023-02-23T00:34:52.350Z,9.70
2023-02-23T00:37:55.047Z,9.67
2023-02-23T00:40:57.663Z,9.66
2023-02-23T00:44:01.912Z,9.62
2023-02-23T00:47:04.655Z,9.56
2023-02-23T00:50:12.876Z,9.52
2023-02-23T00:53:16.394Z,9.64
2023-02-23T00:56:19.004Z,9.62
2023-02-23T00:59:21.742Z,9.59
2023-02-23T01:02:25.140Z,9.60
2023-02-23T01:05:29.204Z,9.55
2023-02-23T01:08:32.324Z,9.55
2023-02-23T01:11:35.253Z,9.51
2023-02-23T01:14:38.309Z,9.46
2023-02-23T01:17:41.163Z,9.48
2023-02-23T01:20:46.323Z,9.46
2023-02-23T01:23:49.654Z,9.37
2023-02-23T01:26:52.370Z,9.31
2023-02-23T01:29:55.438Z,9.28
2023-02-23T01:32:58.159Z,9.28
2023-02-23T01:36:02.255Z,9.37
2023-02-23T01:39:07.675Z,9.44
2023-02-23T01:42:13.818Z,9.44
2023-02-23T01:45:24.799Z,9.47
2023-02-23T01:48:32.606Z,9.52
2023-02-23T01:51:42.965Z,9.51
2023-02-23T01:54:50.544Z,9.52
2023-02-23T01:57:57.160Z,9.55
2023-02-23T02:01:02.549Z,9.57
2023-02-23T02:04:06.578Z,9.60
2023-02-23T02:07:11.495Z,9.53
2023-02-23T02:10:33.808Z,9.37
2023-02-23T02:13:37.828Z,9.36
2023-02-23T02:17:03.517Z,9.35
2023-02-23T02:20:52.376Z,9.29
2023-02-23T02:24:22.007Z,9.31
2023-02-23T02:27:43.406Z,9.34
2023-02-23T02:31:30.203Z,9.34
2023-02-23T02:35:10.124Z,9.38
2023-02-23T02:38:25.311Z,9.38
2023-02-23T02:41:36.931Z,9.42
2023-02-23T02:44:49.548Z,9.46
2023-02-23T02:47:59.386Z,9.46
2023-02-23T02:51:10.035Z,9.47
2023-02-23T02:54:22.119Z,9.51
2023-02-23T02:57:28.740Z,9.55
2023-02-23T03:00:54.991Z,9.51
2023-02-23T03:04:17.443Z,9.56
2023-02-23T03:07:45.287Z,9.54
2023-02-23T03:11:17.320Z,9.52
2023-02-23T03:14:47.319Z,9.61
2023-02-23T03:18:15.637Z,9.58
2023-02-23T03:21:44.473Z,9.54
2023-02-23T03:25:13.422Z,9.54
2023-02-23T03:28:37.736Z,9.54
2023-02-23T03:32:06.796Z,9.53
2023-02-23T03:35:34.149Z,9.55
2023-02-23T03:38:59.620Z,9.53
2023-02-23T03:42:23.858Z,9.56
2023-02-23T03:45:47.876Z,9.57
2023-02-23T03:49:12.046Z,9.58
2023-02-23T03:52:35.730Z,9.55
2023-02-23T03:56:01.143Z,9.49
2023-02-23T03:59:24.300Z,9.49
2023-02-23T04:02:47.915Z,9.44
2023-02-23T04:06:11.601Z,9.49
2023-02-23T04:09:32.457Z,9.47
2023-02-23T04:12:56.169Z,9.42
2023-02-23T04:16:03.644Z,9.38
2023-02-23T04:19:07.822Z,9.44
2023-02-23T04:22:10.499Z,9.43
2023-02-23T04:25:17.234Z,9.46
2023-02-23T04:28:20.562Z,9.46
2023-02-23T04:31:25.131Z,9.50
2023-02-23T04:34:29.539Z,9.49
2023-02-23T04:37:32.142Z,9.48
2023-02-23T04:40:35.308Z,9.50
2023-02-23T04:43:38.099Z,9.54
2023-02-23T04:46:40.778Z,9.49
2023-02-23T04:49:45.508Z,9.49
2023-02-23T04:52:48.707Z,9.49
2023-02-23T04:55:51.703Z,9.45
2023-02-23T04:58:54.373Z,9.42
2023-02-23T05:01:57.028Z,9.43
2023-02-23T05:05:01.061Z,9.37
2023-02-23T05:08:03.766Z,9.28
2023-02-23T05:11:07.618Z,9.31
2023-02-23T05:14:10.677Z,9.29
2023-02-23T05:17:13.532Z,9.31
2023-02-23T05:20:17.552Z,9.26
2023-02-23T05:23:20.317Z,9.29
2023-02-23T05:26:23.049Z,9.27
2023-02-23T05:29:25.774Z,9.27
2023-02-23T05:32:28.575Z,9.34
2023-02-23T05:35:32.899Z,9.30
2023-02-23T05:38:36.155Z,9.35
2023-02-23T05:41:39.238Z,9.34
2023-02-23T05:44:41.857Z,9.35
2023-02-23T05:47:44.468Z,9.33
2023-02-23T05:50:48.464Z,9.25
2023-02-23T05:53:51.267Z,9.26
2023-02-23T05:56:54.077Z,9.25
2023-02-23T05:59:56.728Z,9.28
2023-02-23T06:02:59.396Z,9.34
2023-02-23T06:06:03.536Z,9.32
2023-02-23T06:09:06.204Z,9.30
2023-02-23T06:12:10.113Z,9.27
2023-02-23T06:15:12.883Z,9.22
2023-02-23T06:18:15.468Z,9.21
2023-02-23T06:21:19.733Z,9.23
2023-02-23T06:24:23.693Z,9.21
2023-02-23T06:27:26.858Z,9.19
2023-02-23T06:30:29.635Z,9.16
2023-02-23T06:33:32.261Z,9.22
2023-02-23T06:36:36.532Z,9.28
2023-02-23T06:39:39.142Z,9.28
2023-02-23T06:42:41.826Z,9.24
2023-02-23T06:45:44.476Z,9.26
2023-02-23T06:48:47.336Z,9.24
2023-02-23T06:51:51.653Z,9.22
2023-02-23T06:54:54.406Z,9.22
2023-02-23T06:57:57.376Z,9.23
2023-02-23T07:01:00.386Z,9.29
2023-02-23T07:04:03.179Z,9.31
2023-02-23T07:07:07.480Z,9.31
2023-02-23T07:10:11.803Z,9.36
2023-02-23T07:13:14.512Z,9.37
2023-02-23T07:16:17.219Z,9.46
2023-02-23T07:19:19.879Z,9.51
2023-02-23T07:22:25.305Z,9.50
2023-02-23T07:25:27.966Z,9.48
2023-02-23T07:28:30.611Z,9.53
2023-02-23T07:31:33.347Z,9.60
2023-02-23T07:34:37.062Z,9.67
2023-02-23T07:37:42.079Z,9.71
2023-02-23T07:40:44.700Z,9.78
2023-02-23T07:43:47.465Z,9.80
2023-02-23T07:46:50.569Z,9.86
2023-02-23T07:49:53.190Z,9.93
2023-02-23T07:52:57.233Z,10.01
2023-02-23T07:56:00.739Z,10.09
2023-02-23T07:59:03.631Z,10.14
2023-02-23T08:02:07.014Z,10.19
2023-02-23T08:05:10.029Z,10.21
2023-02-23T08:08:14.126Z,10.25
2023-02-23T08:11:17.211Z,10.25
2023-02-23T08:14:23.569Z,10.25
2023-02-23T08:17:27.437Z,10.30
2023-02-23T08:20:30.807Z,10.35
2023-02-23T08:23:35.579Z,10.41
2023-02-23T08:26:38.737Z,10.46
2023-02-23T08:29:41.417Z,10.49
2023-02-23T08:32:44.017Z,10.56
2023-02-23T08:35:46.854Z,10.56
2023-02-23T08:38:51.152Z,10.62
2023-02-23T08:41:55.605Z,10.72
2023-02-23T08:44:59.163Z,10.82
2023-02-23T08:48:01.806Z,10.87
2023-02-23T08:51:04.590Z,10.92
2023-02-23T08:54:14.313Z,10.94
2023-02-23T08:57:17.600Z,10.97
2023-02-23T09:00:21.584Z,10.96
2023-02-23T09:03:25.845Z,10.98
2023-02-23T09:06:28.938Z,11.01
2023-02-23T09:09:34.135Z,11.08
2023-02-23T09:12:36.769Z,11.11
2023-02-23T09:15:40.201Z,11.16
2023-02-23T09:18:43.266Z,11.24
2023-02-23T09:21:45.968Z,11.34
2023-02-23T09:24:50.026Z,11.44
2023-02-23T09:27:53.914Z,11.59
2023-02-23T09:30:56.568Z,11.76
2023-02-23T09:34:00.286Z,11.94
2023-02-23T09:37:03.550Z,11.99
2023-02-23T09:40:09.895Z,12.03
2023-02-23T09:43:16.313Z,12.12
2023-02-23T09:46:29.458Z,12.30
2023-02-23T09:49:38.349Z,12.40
2023-02-23T09:52:44.968Z,12.60
2023-02-23T09:55:51.372Z,12.85
2023-02-23T09:58:54.384Z,13.04
2023-02-23T10:02:05.551Z,13.21
2023-02-23T10:05:11.775Z,13.39
2023-02-23T10:08:26.004Z,13.69
2023-02-23T10:11:39.839Z,13.91
2023-02-23T10:14:59.419Z,14.22
2023-02-23T10:18:13.154Z,14.40
2023-02-23T10:21:19.860Z,14.45
2023-02-23T10:24:25.538Z,14.86
2023-02-23T10:27:39.156Z,15.07
2023-02-23T10:30:42.269Z,15.44
2023-02-23T10:33:44.911Z,15.73
2023-02-23T10:36:53.394Z,15.67
2023-02-23T10:39:56.164Z,15.53
2023-02-23T10:43:02.408Z,15.42
2023-02-23T10:46:07.028Z,15.03
2023-02-23T10:49:18.982Z,14.85
2023-02-23T10:52:31.090Z,14.72
2023-02-23T10:55:34.442Z,14.51
2023-02-23T10:58:46.387Z,14.35
2023-02-23T11:02:01.541Z,14.29
2023-02-23T11:05:07.210Z,14.29
2023-02-23T11:08:20.657Z,14.16
2023-02-23T11:11:28.706Z,14.16
2023-02-23T11:14:33.169Z,14.18
2023-02-23T11:17:38.754Z,14.19
2023-02-23T11:20:44.301Z,14.29
2023-02-23T11:23:47.104Z,14.46
2023-02-23T11:26:52.170Z,14.65
2023-02-23T11:29:59.587Z,14.87
2023-02-23T11:33:11.089Z,15.11
2023-02-23T11:36:26.512Z,15.32
2023-02-23T11:39:29.261Z,15.79
2023-02-23T11:42:33.919Z,15.99
2023-02-23T11:45:47.473Z,16.16
2023-02-23T11:48:53.965Z,16.31
2023-02-23T11:51:59.374Z,16.64
2023-02-23T11:55:06.555Z,16.62
2023-02-23T11:58:24.138Z,16.72
2023-02-23T12:01:41.787Z,16.69
2023-02-23T12:04:47.545Z,16.54
2023-02-23T12:07:56.789Z,16.46
2023-02-23T12:11:03.803Z,16.31
2023-02-23T12:14:13.523Z,16.60
2023-02-23T12:17:23.018Z,17.15
2023-02-23T12:20:27.865Z,17.63
2023-02-23T12:23:34.846Z,17.90
2023-02-23T12:26:45.789Z,17.80
2023-02-23T12:30:03.114Z,17.51
2023-02-23T12:33:13.096Z,17.10
2023-02-23T12:36:26.040Z,16.72
2023-02-23T12:39:33.078Z,16.36
2023-02-23T12:42:41.506Z,16.07
2023-02-23T12:45:47.391Z,15.71
2023-02-23T12:49:01.458Z,15.43
2023-02-23T12:52:11.461Z,15.18
2023-02-23T12:55:15.372Z,15.00
2023-02-23T12:58:25.441Z,14.89
2023-02-23T13:01:32.885Z,14.73
2023-02-23T13:04:53.559Z,14.60
2023-02-23T13:08:13.468Z,14.55
2023-02-23T13:11:28.693Z,14.48
2023-02-23T13:14:39.088Z,14.35
2023-02-23T13:17:48.018Z,14.24
2023-02-23T13:20:56.630Z,14.16
2023-02-23T13:24:05.145Z,14.15
2023-02-23T13:27:16.328Z,14.10
2023-02-23T13:30:20.728Z,14.02
2023-02-23T13:33:41.870Z,13.99
2023-02-23T13:36:50.394Z,13.92
2023-02-23T13:40:09.397Z,13.92
2023-02-23T13:43:22.985Z,13.96
2023-02-23T13:46:37.215Z,13.99
2023-02-23T13:49:47.483Z,14.02
2023-02-23T13:52:58.343Z,14.06
2023-02-23T13:56:06.683Z,14.04
2023-02-23T13:59:16.336Z,13.97
2023-02-23T14:02:33.139Z,14.01
2023-02-23T14:05:44.421Z,13.97
2023-02-23T14:08:54.464Z,14.06
2023-02-23T14:12:05.331Z,14.11
2023-02-23T14:15:41.271Z,14.19
2023-02-23T14:19:07.037Z,14.21
2023-02-23T14:22:15.392Z,14.20
2023-02-23T14:25:48.381Z,14.07
2023-02-23T14:29:17.854Z,14.05
2023-02-23T14:32:32.334Z,14.03
2023-02-23T14:35:44.453Z,14.01
2023-02-23T14:38:48.475Z,14.08
2023-02-23T14:41:55.511Z,14.11
2023-02-23T14:45:03.936Z,14.12
2023-02-23T14:48:09.791Z,14.10
2023-02-23T14:51:17.839Z,14.08
2023-02-23T14:54:26.453Z,14.09
2023-02-23T14:57:30.417Z,14.13
2023-02-23T15:00:42.198Z,14.10
2023-02-23T15:04:09.576Z,14.01
2023-02-23T15:07:18.756Z,14.01
2023-02-23T15:10:27.013Z,14.02
2023-02-23T15:13:33.953Z,13.90
2023-02-23T15:16:37.840Z,13.85
2023-02-23T15:19:40.994Z,13.73
2023-02-23T15:22:47.142Z,13.62
2023-02-23T15:25:51.214Z,13.58
2023-02-23T15:28:56.271Z,13.47
2023-02-23T15:32:15.322Z,13.44
2023-02-23T15:35:18.296Z,13.39
2023-02-23T15:38:42.251Z,13.41
2023-02-23T15:41:48.715Z,13.38
2023-02-23T15:45:04.780Z,13.32
2023-02-23T15:48:12.149Z,13.30
2023-02-23T15:51:26.128Z,13.22
2023-02-23T15:54:32.236Z,13.21
2023-02-23T15:57:48.507Z,13.21
2023-02-23T16:00:57.587Z,13.18
2023-02-23T16:04:03.538Z,13.09
2023-02-23T16:07:17.822Z,13.10
2023-02-23T16:10:23.329Z,13.00
2023-02-23T16:13:27.267Z,12.95
2023-02-23T16:16:34.965Z,12.90
2023-02-23T16:19:40.900Z,12.84
2023-02-23T16:22:46.203Z,12.77
2023-02-23T16:25:54.197Z,12.76
2023-02-23T16:28:59.647Z,12.75
2023-02-23T16:32:04.192Z,12.73
2023-02-23T16:35:16.860Z,12.73
2023-02-23T16:38:25.645Z,12.78
2023-02-23T16:41:31.004Z,12.78
2023-02-23T16:44:42.896Z,12.74
2023-02-23T16:47:48.819Z,12.63
2023-02-23T16:50:51.751Z,12.55
2023-02-23T16:53:54.454Z,12.53
2023-02-23T16:56:57.359Z,12.50
2023-02-23T17:00:00.552Z,12.41
2023-02-23T17:03:06.681Z,12.37
2023-02-23T17:06:10.023Z,12.40
2023-02-23T17:09:13.481Z,12.32
2023-02-23T17:12:21.717Z,12.23
2023-02-23T17:15:27.282Z,12.17
2023-02-23T17:18:33.510Z,12.15
2023-02-23T17:21:36.113Z,12.12
2023-02-23T17:24:38.864Z,12.11
2023-02-23T17:27:41.488Z,12.08
2023-02-23T17:30:44.815Z,12.06
2023-02-23T17:33:49.602Z,12.05
2023-02-23T17:36:52.319Z,12.04
2023-02-23T17:39:55.003Z,12.00
2023-02-23T17:43:00.166Z,12.00
2023-02-23T17:46:03.025Z,11.97
2023-02-23T17:49:07.197Z,11.93
2023-02-23T17:52:09.816Z,11.89
2023-02-23T17:55:12.757Z,11.88
2023-02-23T17:58:15.592Z,11.85
2023-02-23T18:01:19.821Z,11.82
2023-02-23T18:04:24.138Z,11.80
2023-02-23T18:07:26.891Z,11.84
2023-02-23T18:10:29.516Z,11.84
2023-02-23T18:13:33.712Z,11.86
2023-02-23T18:16:36.493Z,11.93
2023-02-23T18:19:40.824Z,11.86
2023-02-23T18:22:43.639Z,11.82
2023-02-23T18:25:46.716Z,11.69
2023-02-23T18:28:51.080Z,11.65
2023-02-23T18:31:53.930Z,11.58
2023-02-23T18:34:58.015Z,11.46
2023-02-23T18:38:00.712Z,11.39
2023-02-23T18:41:03.628Z,11.31
2023-02-23T18:44:08.391Z,11.25
2023-02-23T18:47:11.585Z,11.21
2023-02-23T18:50:18.855Z,11.11
2023-02-23T18:53:21.478Z,10.95
2023-02-23T18:56:28.065Z,10.90
2023-02-23T18:59:30.738Z,10.84
2023-02-23T19:02:33.349Z,10.73
2023-02-23T19:05:37.815Z,10.67
2023-02-23T19:08:41.956Z,10.60
2023-02-23T19:11:44.635Z,10.60
2023-02-23T19:14:51.122Z,10.53
2023-02-23T19:17:54.400Z,10.50
2023-02-23T19:20:58.489Z,10.54
2023-02-23T19:24:02.375Z,10.54
2023-02-23T19:27:05.144Z,10.56
2023-02-23T19:30:10.305Z,10.60
2023-02-23T19:33:14.227Z,10.58
2023-02-23T19:36:20.219Z,10.65
2023-02-23T19:39:22.851Z,10.62
2023-02-23T19:42:25.505Z,10.60
2023-02-23T19:45:28.159Z,10.64
2023-02-23T19:48:30.780Z,10.65
2023-02-23T19:51:34.833Z,10.64
2023-02-23T19:54:37.985Z,10.72
2023-02-23T19:57:40.796Z,10.71
2023-02-23T20:00:45.215Z,10.77
2023-02-23T20:03:55.094Z,10.75
2023-02-23T20:06:59.076Z,10.74
2023-02-23T20:10:05.352Z,10.79
2023-02-23T20:13:08.617Z,10.74
2023-02-23T20:16:13.572Z,10.71
2023-02-23T20:19:16.315Z,10.73
2023-02-23T20:22:20.348Z,10.68
2023-02-23T20:25:23.458Z,10.66
2023-02-23T20:28:26.119Z,10.65
2023-02-23T20:31:31.195Z,10.60
2023-02-23T20:34:35.637Z,10.59
2023-02-23T20:37:39.736Z,10.55
2023-02-23T20:40:42.631Z,10.56
2023-02-23T20:43:45.984Z,10.56
2023-02-23T20:46:49.056Z,10.59
2023-02-23T20:49:51.711Z,10.61
2023-02-23T20:52:55.952Z,10.67
2023-02-23T20:55:58.796Z,10.64
2023-02-23T20:59:02.291Z,10.67
2023-02-23T21:02:05.397Z,10.66
2023-02-23T21:05:12.223Z,10.65
2023-02-23T21:08:16.462Z,10.66
2023-02-23T21:11:20.525Z,10.68
2023-02-23T21:14:23.393Z,10.69
2023-02-23T21:17:26.203Z,10.69
2023-02-23T21:20:29.671Z,10.66
2023-02-23T21:23:33.688Z,10.65
2023-02-23T21:26:36.960Z,10.63
2023-02-23T21:29:40.512Z,10.62
2023-02-23T21:32:43.570Z,10.59
2023-02-23T21:35:46.221Z,10.59
2023-02-23T21:38:51.316Z,10.57
2023-02-23T21:41:53.929Z,10.54
2023-02-23T21:44:56.810Z,10.53
2023-02-23T21:47:59.435Z,10.51
2023-02-23T21:51:06.215Z,10.50
2023-02-23T21:54:10.347Z,10.50
2023-02-23T21:57:13.231Z,10.53
2023-02-23T22:00:18.949Z,10.55
2023-02-23T22:03:26.011Z,10.67
2023-02-23T22:06:31.350Z,10.71
2023-02-23T22:09:36.066Z,10.73
2023-02-23T22:12:38.684Z,10.74
2023-02-23T22:15:41.315Z,10.80
2023-02-23T22:18:44.398Z,10.80
2023-02-23T22:21:48.371Z,10.84
2023-02-23T22:24:52.336Z,10.82
2023-02-23T22:27:54.948Z,10.76
2023-02-23T22:30:57.993Z,10.72
2023-02-23T22:34:00.749Z,10.70
2023-02-23T22:37:03.502Z,10.72
2023-02-23T22:40:14.356Z,10.71
2023-02-23T22:43:17.033Z,10.80
2023-02-23T22:46:19.759Z,10.73
2023-02-23T22:49:22.388Z,10.72
2023-02-23T22:52:26.677Z,10.71
2023-02-23T22:55:31.153Z,10.69
2023-02-23T22:58:33.838Z,10.73
2023-02-23T23:01:38.410Z,10.74
2023-02-23T23:04:41.321Z,10.73
2023-02-23T23:07:46.773Z,10.72
2023-02-23T23:10:50.958Z,10.72
2023-02-23T23:13:57.619Z,10.67
2023-02-23T23:17:00.294Z,10.65
2023-02-23T23:20:10.614Z,10.66
2023-02-23T23:23:13.321Z,10.65
2023-02-23T23:26:20.112Z,10.69
2023-02-23T23:29:25.721Z,10.66
2023-02-23T23:32:29.934Z,10.61
2023-02-23T23:35:34.278Z,10.60
2023-02-23T23:38:38.520Z,10.58
2023-02-23T23:41:44.042Z,10.60
2023-02-23T23:44:46.721Z,10.59
2023-02-23T23:47:49.333Z,10.60
2023-02-23T23:50:51.970Z,10.60
2023-02-23T23:53:54.628Z,10.56
2023-02-23T23:57:01.238Z,10.55
